Cherry Capital Airport
KTVC : now visible

Airfield :











YOU CAN JOIN US ON...

 
LOGIN :

Register | Disclaimer

   EN    FR    IT 

 









Legend :    VFR   Marginal VFR   IFR   Intensive IFR   Very Intensive IFR
Visi :
Ceiling :
>= 8 km
>= 3000ft
5 to 8 km
1000 to 3000 ft
1500m to 5 km
500 to 1000 ft
800 to 1500m
200 to 500 ft
< 800m
< 200 ft
Symbols :   Thunderstorms  Fog  Heavy snow  Heavy precipitations  Wind > 20 kt






- Airport Elevation : 624 ft
- IATA code : TVC


KTVC - Cherry Capital

CURRENT METAR :
  • 150653Z AUTO 31012G22KT 10SM FEW018 BKN028 OVC034 M02/M06 A2973 RMK AO2 SLP076 T10171056 $

EXPIRED METARs :
  • 150553Z AUTO 31013G17KT 10SM BKN018 OVC029 M02/M05 A2972 RMK AO2 SLP071 60001 T10171050 10006 21017 53020 $
  • 150453Z AUTO 32009G19KT 10SM OVC024 M01/M05 A2969 RMK AO2 SLP062 T10111050 400171011 $

TAF KTVC
Valid from the 15 at 06:00 until the 16 at 06:00 UTC


150529Z 1506/1606 32011G21KT P6SM -SHSN OVC025
FM151300 33011G19KT P6SM VCSH BKN028
FM151700 29008KT P6SM BKN035
FM152300 25006KT P6SM BKN060



MET'MAP, your aeronautical weather chart ! - Copyright ORBIFLY December 2007 - Disclaimer

ORBIFLY MET'MAP TEAM :

Programming & Development : Alexandra Zaïnal
Concept & original design : Baudouin d'Aumeries
Assistance for programming : Marc-Olivier Méhu
Technical & hardware support : Manuel Goepfert

Contact : metmap@orbifly.com




SOURCES & CREDITS :

   NOAA       Earth
Advisory